sensor_id;sensor_type;location;lat;lon;timestamp;P1;durP1;ratioP1;P2;durP2;ratioP2
61104;SDS011;46987;32.638;-115.438;2022-08-25T00:02:03;23.90;;;3.45;;
61104;SDS011;46987;32.638;-115.438;2022-08-25T00:04:34;27.88;;;3.55;;
61104;SDS011;46987;32.638;-115.438;2022-08-25T00:07:01;30.55;;;3.63;;
61104;SDS011;46987;32.638;-115.438;2022-08-25T00:09:30;20.27;;;3.45;;
61104;SDS011;46987;32.638;-115.438;2022-08-25T00:11:58;24.38;;;3.67;;
61104;SDS011;46987;32.638;-115.438;2022-08-25T00:14:28;26.45;;;4.38;;
61104;SDS011;46987;32.638;-115.438;2022-08-25T00:16:57;24.30;;;3.50;;
61104;SDS011;46987;32.638;-115.438;2022-08-25T00:19:26;22.42;;;3.30;;
61104;SDS011;46987;32.638;-115.438;2022-08-25T00:21:58;26.70;;;3.37;;
61104;SDS011;46987;32.638;-115.438;2022-08-25T00:24:26;23.70;;;3.40;;
61104;SDS011;46987;32.638;-115.438;2022-08-25T00:26:54;20.65;;;2.92;;
61104;SDS011;46987;32.638;-115.438;2022-08-25T00:29:22;23.65;;;3.45;;
61104;SDS011;46987;32.638;-115.438;2022-08-25T00:31:51;16.02;;;3.13;;
61104;SDS011;46987;32.638;-115.438;2022-08-25T00:34:20;24.80;;;3.28;;
61104;SDS011;46987;32.638;-115.438;2022-08-25T00:36:49;32.78;;;3.83;;
61104;SDS011;46987;32.638;-115.438;2022-08-25T00:39:19;19.42;;;2.67;;
61104;SDS011;46987;32.638;-115.438;2022-08-25T00:41:48;21.07;;;2.60;;
61104;SDS011;46987;32.638;-115.438;2022-08-25T00:44:17;10.23;;;2.08;;
61104;SDS011;46987;32.638;-115.438;2022-08-25T00:46:46;10.48;;;1.75;;
61104;SDS011;46987;32.638;-115.438;2022-08-25T00:49:17;15.48;;;2.33;;
61104;SDS011;46987;32.638;-115.438;2022-08-25T00:51:48;13.35;;;1.90;;
61104;SDS011;46987;32.638;-115.438;2022-08-25T00:54:21;12.82;;;2.13;;
61104;SDS011;46987;32.638;-115.438;2022-08-25T00:56:52;8.65;;;1.30;;
61104;SDS011;46987;32.638;-115.438;2022-08-25T00:59:20;8.55;;;1.58;;
61104;SDS011;46987;32.638;-115.438;2022-08-25T01:01:49;10.25;;;1.30;;
61104;SDS011;46987;32.638;-115.438;2022-08-25T01:04:17;9.88;;;1.55;;
61104;SDS011;46987;32.638;-115.438;2022-08-25T01:06:46;14.10;;;2.22;;
61104;SDS011;46987;32.638;-115.438;2022-08-25T01:09:14;9.18;;;1.17;;
61104;SDS011;46987;32.638;-115.438;2022-08-25T01:11:46;9.90;;;1.60;;
61104;SDS011;46987;32.638;-115.438;2022-08-25T01:14:15;17.10;;;2.45;;
61104;SDS011;46987;32.638;-115.438;2022-08-25T01:16:44;8.70;;;1.92;;
61104;SDS011;46987;32.638;-115.438;2022-08-25T01:19:11;5.97;;;1.80;;
61104;SDS011;46987;32.638;-115.438;2022-08-25T01:21:43;9.15;;;1.33;;
61104;SDS011;46987;32.638;-115.438;2022-08-25T01:24:13;7.68;;;1.92;;
61104;SDS011;46987;32.638;-115.438;2022-08-25T01:26:46;4.40;;;1.25;;
61104;SDS011;46987;32.638;-115.438;2022-08-25T01:29:14;4.80;;;1.25;;
61104;SDS011;46987;32.638;-115.438;2022-08-25T01:31:47;8.02;;;1.85;;
61104;SDS011;46987;32.638;-115.438;2022-08-25T01:34:15;16.02;;;2.30;;
61104;SDS011;46987;32.638;-115.438;2022-08-25T01:36:46;11.65;;;1.55;;
61104;SDS011;46987;32.638;-115.438;2022-08-25T01:39:13;22.35;;;3.28;;
61104;SDS011;46987;32.638;-115.438;2022-08-25T01:41:48;8.38;;;1.50;;
61104;SDS011;46987;32.638;-115.438;2022-08-25T01:44:24;8.00;;;1.83;;
61104;SDS011;46987;32.638;-115.438;2022-08-25T01:46:51;7.22;;;1.45;;
61104;SDS011;46987;32.638;-115.438;2022-08-25T01:49:19;12.73;;;2.60;;
61104;SDS011;46987;32.638;-115.438;2022-08-25T01:51:50;12.70;;;2.42;;
61104;SDS011;46987;32.638;-115.438;2022-08-25T01:54:21;12.93;;;2.42;;
61104;SDS011;46987;32.638;-115.438;2022-08-25T01:56:48;8.73;;;1.50;;
61104;SDS011;46987;32.638;-115.438;2022-08-25T01:59:16;7.82;;;1.73;;
61104;SDS011;46987;32.638;-115.438;2022-08-25T02:01:45;7.60;;;1.30;;
61104;SDS011;46987;32.638;-115.438;2022-08-25T02:04:12;8.20;;;1.85;;
61104;SDS011;46987;32.638;-115.438;2022-08-25T02:06:39;7.43;;;1.45;;
61104;SDS011;46987;32.638;-115.438;2022-08-25T02:09:09;8.57;;;1.60;;
61104;SDS011;46987;32.638;-115.438;2022-08-25T02:11:40;10.02;;;1.88;;
61104;SDS011;46987;32.638;-115.438;2022-08-25T02:14:11;12.13;;;2.42;;
61104;SDS011;46987;32.638;-115.438;2022-08-25T02:16:40;8.35;;;2.08;;
61104;SDS011;46987;32.638;-115.438;2022-08-25T02:19:10;12.75;;;3.30;;
61104;SDS011;46987;32.638;-115.438;2022-08-25T02:21:37;24.50;;;4.70;;
61104;SDS011;46987;32.638;-115.438;2022-08-25T02:24:05;12.82;;;2.78;;
61104;SDS011;46987;32.638;-115.438;2022-08-25T02:26:35;10.73;;;2.20;;
61104;SDS011;46987;32.638;-115.438;2022-08-25T02:29:03;9.27;;;2.17;;
61104;SDS011;46987;32.638;-115.438;2022-08-25T02:31:32;8.70;;;1.50;;
61104;SDS011;46987;32.638;-115.438;2022-08-25T02:34:00;11.90;;;1.90;;
61104;SDS011;46987;32.638;-115.438;2022-08-25T02:36:29;12.15;;;2.10;;
61104;SDS011;46987;32.638;-115.438;2022-08-25T02:38:57;9.40;;;2.05;;
61104;SDS011;46987;32.638;-115.438;2022-08-25T02:41:26;5.45;;;2.10;;
61104;SDS011;46987;32.638;-115.438;2022-08-25T02:43:53;13.73;;;2.78;;
61104;SDS011;46987;32.638;-115.438;2022-08-25T02:46:21;9.80;;;2.10;;
61104;SDS011;46987;32.638;-115.438;2022-08-25T02:48:49;13.23;;;2.30;;
61104;SDS011;46987;32.638;-115.438;2022-08-25T02:51:18;8.55;;;2.17;;
61104;SDS011;46987;32.638;-115.438;2022-08-25T02:53:47;10.13;;;2.13;;
61104;SDS011;46987;32.638;-115.438;2022-08-25T02:56:14;7.85;;;1.80;;
61104;SDS011;46987;32.638;-115.438;2022-08-25T02:58:46;11.18;;;2.08;;
61104;SDS011;46987;32.638;-115.438;2022-08-25T03:01:14;12.15;;;2.20;;
61104;SDS011;46987;32.638;-115.438;2022-08-25T03:03:42;11.88;;;2.50;;
61104;SDS011;46987;32.638;-115.438;2022-08-25T03:06:11;19.35;;;2.88;;
61104;SDS011;46987;32.638;-115.438;2022-08-25T03:08:41;15.77;;;2.47;;
61104;SDS011;46987;32.638;-115.438;2022-08-25T03:11:10;18.10;;;3.25;;
61104;SDS011;46987;32.638;-115.438;2022-08-25T03:13:37;21.13;;;2.85;;
61104;SDS011;46987;32.638;-115.438;2022-08-25T03:16:08;17.17;;;3.65;;
61104;SDS011;46987;32.638;-115.438;2022-08-25T03:18:35;18.42;;;3.45;;
61104;SDS011;46987;32.638;-115.438;2022-08-25T03:21:03;19.73;;;3.88;;
61104;SDS011;46987;32.638;-115.438;2022-08-25T03:23:30;25.60;;;3.47;;
61104;SDS011;46987;32.638;-115.438;2022-08-25T03:25:58;12.73;;;2.05;;
61104;SDS011;46987;32.638;-115.438;2022-08-25T03:28:43;10.75;;;2.80;;
61104;SDS011;46987;32.638;-115.438;2022-08-25T03:31:12;8.85;;;1.70;;
61104;SDS011;46987;32.638;-115.438;2022-08-25T03:33:40;9.68;;;1.48;;
61104;SDS011;46987;32.638;-115.438;2022-08-25T03:36:08;9.52;;;1.40;;
61104;SDS011;46987;32.638;-115.438;2022-08-25T03:38:39;7.97;;;1.50;;
61104;SDS011;46987;32.638;-115.438;2022-08-25T03:41:11;13.70;;;1.80;;
61104;SDS011;46987;32.638;-115.438;2022-08-25T03:43:41;8.15;;;1.23;;
61104;SDS011;46987;32.638;-115.438;2022-08-25T03:46:17;9.10;;;1.48;;
61104;SDS011;46987;32.638;-115.438;2022-08-25T03:48:45;11.25;;;1.20;;
61104;SDS011;46987;32.638;-115.438;2022-08-25T03:51:17;15.50;;;1.42;;
61104;SDS011;46987;32.638;-115.438;2022-08-25T03:53:46;9.43;;;1.65;;
61104;SDS011;46987;32.638;-115.438;2022-08-25T03:56:13;10.80;;;1.20;;
61104;SDS011;46987;32.638;-115.438;2022-08-25T03:58:41;11.18;;;1.75;;
61104;SDS011;46987;32.638;-115.438;2022-08-25T04:01:09;10.05;;;1.75;;
61104;SDS011;46987;32.638;-115.438;2022-08-25T04:03:38;10.55;;;2.00;;
61104;SDS011;46987;32.638;-115.438;2022-08-25T04:06:06;9.80;;;1.92;;
61104;SDS011;46987;32.638;-115.438;2022-08-25T04:08:34;8.93;;;1.85;;
61104;SDS011;46987;32.638;-115.438;2022-08-25T04:11:05;14.25;;;2.00;;
61104;SDS011;46987;32.638;-115.438;2022-08-25T04:13:35;17.85;;;3.22;;
61104;SDS011;46987;32.638;-115.438;2022-08-25T04:16:03;15.57;;;2.40;;
61104;SDS011;46987;32.638;-115.438;2022-08-25T04:18:35;20.70;;;3.03;;
61104;SDS011;46987;32.638;-115.438;2022-08-25T04:21:04;13.02;;;2.03;;
61104;SDS011;46987;32.638;-115.438;2022-08-25T04:26:01;17.27;;;2.75;;
61104;SDS011;46987;32.638;-115.438;2022-08-25T04:28:34;21.67;;;2.97;;
61104;SDS011;46987;32.638;-115.438;2022-08-25T04:31:04;20.05;;;2.97;;
61104;SDS011;46987;32.638;-115.438;2022-08-25T04:33:32;18.70;;;2.85;;
61104;SDS011;46987;32.638;-115.438;2022-08-25T04:36:00;15.52;;;3.38;;
61104;SDS011;46987;32.638;-115.438;2022-08-25T04:38:30;23.60;;;3.50;;
61104;SDS011;46987;32.638;-115.438;2022-08-25T04:40:58;23.70;;;3.00;;
61104;SDS011;46987;32.638;-115.438;2022-08-25T04:43:26;18.77;;;3.75;;
61104;SDS011;46987;32.638;-115.438;2022-08-25T04:45:54;21.25;;;3.70;;
61104;SDS011;46987;32.638;-115.438;2022-08-25T04:48:22;21.60;;;2.53;;
61104;SDS011;46987;32.638;-115.438;2022-08-25T04:50:50;22.02;;;2.88;;
61104;SDS011;46987;32.638;-115.438;2022-08-25T04:53:19;22.27;;;3.92;;
61104;SDS011;46987;32.638;-115.438;2022-08-25T04:55:47;22.25;;;3.10;;
61104;SDS011;46987;32.638;-115.438;2022-08-25T04:58:14;23.70;;;3.28;;
61104;SDS011;46987;32.638;-115.438;2022-08-25T05:00:42;30.48;;;3.97;;
61104;SDS011;46987;32.638;-115.438;2022-08-25T05:03:11;27.02;;;3.45;;
61104;SDS011;46987;32.638;-115.438;2022-08-25T05:05:39;29.85;;;4.32;;
61104;SDS011;46987;32.638;-115.438;2022-08-25T05:08:06;24.52;;;3.50;;
61104;SDS011;46987;32.638;-115.438;2022-08-25T05:10:39;19.05;;;3.13;;
61104;SDS011;46987;32.638;-115.438;2022-08-25T05:13:08;11.68;;;3.08;;
61104;SDS011;46987;32.638;-115.438;2022-08-25T05:15:35;18.63;;;3.63;;
61104;SDS011;46987;32.638;-115.438;2022-08-25T05:18:18;19.15;;;3.70;;
61104;SDS011;46987;32.638;-115.438;2022-08-25T05:20:47;16.83;;;4.18;;
61104;SDS011;46987;32.638;-115.438;2022-08-25T05:23:15;16.95;;;4.25;;
61104;SDS011;46987;32.638;-115.438;2022-08-25T05:25:44;13.13;;;3.50;;
61104;SDS011;46987;32.638;-115.438;2022-08-25T05:28:12;15.80;;;4.25;;
61104;SDS011;46987;32.638;-115.438;2022-08-25T05:30:40;14.10;;;4.03;;
61104;SDS011;46987;32.638;-115.438;2022-08-25T05:33:08;18.45;;;4.65;;
61104;SDS011;46987;32.638;-115.438;2022-08-25T05:35:36;9.20;;;4.25;;
61104;SDS011;46987;32.638;-115.438;2022-08-25T05:38:04;14.45;;;4.13;;
61104;SDS011;46987;32.638;-115.438;2022-08-25T05:40:31;11.63;;;4.03;;
61104;SDS011;46987;32.638;-115.438;2022-08-25T05:43:00;14.70;;;4.00;;
61104;SDS011;46987;32.638;-115.438;2022-08-25T05:45:28;10.38;;;3.58;;
61104;SDS011;46987;32.638;-115.438;2022-08-25T05:47:57;13.20;;;4.45;;
61104;SDS011;46987;32.638;-115.438;2022-08-25T05:50:24;12.05;;;4.45;;
61104;SDS011;46987;32.638;-115.438;2022-08-25T05:52:52;10.95;;;4.55;;
61104;SDS011;46987;32.638;-115.438;2022-08-25T05:55:19;11.60;;;4.15;;
61104;SDS011;46987;32.638;-115.438;2022-08-25T05:57:47;12.02;;;4.55;;
61104;SDS011;46987;32.638;-115.438;2022-08-25T06:00:16;12.95;;;4.03;;
61104;SDS011;46987;32.638;-115.438;2022-08-25T06:02:44;10.23;;;3.35;;
61104;SDS011;46987;32.638;-115.438;2022-08-25T06:05:14;13.93;;;3.90;;
61104;SDS011;46987;32.638;-115.438;2022-08-25T06:07:43;15.82;;;4.60;;
61104;SDS011;46987;32.638;-115.438;2022-08-25T06:10:11;17.67;;;4.60;;
61104;SDS011;46987;32.638;-115.438;2022-08-25T06:12:40;13.20;;;4.22;;
61104;SDS011;46987;32.638;-115.438;2022-08-25T06:15:10;12.65;;;4.18;;
61104;SDS011;46987;32.638;-115.438;2022-08-25T06:17:41;12.38;;;4.22;;
61104;SDS011;46987;32.638;-115.438;2022-08-25T06:20:10;13.32;;;3.90;;
61104;SDS011;46987;32.638;-115.438;2022-08-25T06:22:39;11.65;;;3.85;;
61104;SDS011;46987;32.638;-115.438;2022-08-25T06:25:07;19.02;;;4.40;;
61104;SDS011;46987;32.638;-115.438;2022-08-25T06:27:35;10.90;;;3.60;;
61104;SDS011;46987;32.638;-115.438;2022-08-25T06:30:04;12.18;;;3.72;;
61104;SDS011;46987;32.638;-115.438;2022-08-25T06:32:32;14.38;;;5.18;;
61104;SDS011;46987;32.638;-115.438;2022-08-25T06:35:03;10.95;;;5.20;;
61104;SDS011;46987;32.638;-115.438;2022-08-25T06:37:36;13.18;;;5.00;;
61104;SDS011;46987;32.638;-115.438;2022-08-25T06:40:05;13.65;;;4.10;;
61104;SDS011;46987;32.638;-115.438;2022-08-25T06:42:34;11.50;;;4.25;;
61104;SDS011;46987;32.638;-115.438;2022-08-25T06:45:02;10.18;;;3.40;;
61104;SDS011;46987;32.638;-115.438;2022-08-25T06:47:31;10.63;;;3.50;;
61104;SDS011;46987;32.638;-115.438;2022-08-25T06:49:59;15.80;;;3.90;;
61104;SDS011;46987;32.638;-115.438;2022-08-25T06:52:29;9.88;;;3.55;;
61104;SDS011;46987;32.638;-115.438;2022-08-25T06:54:56;13.77;;;3.90;;
61104;SDS011;46987;32.638;-115.438;2022-08-25T06:57:24;10.68;;;3.55;;
61104;SDS011;46987;32.638;-115.438;2022-08-25T06:59:51;11.60;;;3.70;;
61104;SDS011;46987;32.638;-115.438;2022-08-25T07:02:18;11.38;;;3.60;;
61104;SDS011;46987;32.638;-115.438;2022-08-25T07:04:46;11.65;;;3.60;;
61104;SDS011;46987;32.638;-115.438;2022-08-25T07:07:15;12.55;;;3.40;;
61104;SDS011;46987;32.638;-115.438;2022-08-25T07:09:44;13.25;;;3.88;;
61104;SDS011;46987;32.638;-115.438;2022-08-25T07:12:12;15.95;;;3.88;;
61104;SDS011;46987;32.638;-115.438;2022-08-25T07:14:39;13.30;;;4.15;;
61104;SDS011;46987;32.638;-115.438;2022-08-25T07:17:07;12.02;;;4.13;;
61104;SDS011;46987;32.638;-115.438;2022-08-25T07:19:35;13.73;;;3.78;;
61104;SDS011;46987;32.638;-115.438;2022-08-25T07:22:02;16.20;;;4.05;;
61104;SDS011;46987;32.638;-115.438;2022-08-25T07:24:30;12.32;;;3.60;;
61104;SDS011;46987;32.638;-115.438;2022-08-25T07:26:59;14.95;;;3.97;;
61104;SDS011;46987;32.638;-115.438;2022-08-25T07:29:27;13.00;;;3.88;;
61104;SDS011;46987;32.638;-115.438;2022-08-25T07:32:17;15.93;;;4.25;;
61104;SDS011;46987;32.638;-115.438;2022-08-25T07:34:44;19.17;;;4.25;;
61104;SDS011;46987;32.638;-115.438;2022-08-25T07:37:30;11.60;;;4.38;;
61104;SDS011;46987;32.638;-115.438;2022-08-25T07:39:57;15.88;;;3.72;;
61104;SDS011;46987;32.638;-115.438;2022-08-25T07:42:30;15.02;;;4.10;;
61104;SDS011;46987;32.638;-115.438;2022-08-25T07:44:57;12.95;;;4.03;;
61104;SDS011;46987;32.638;-115.438;2022-08-25T07:47:24;14.02;;;4.68;;
61104;SDS011;46987;32.638;-115.438;2022-08-25T07:49:51;12.73;;;4.65;;
61104;SDS011;46987;32.638;-115.438;2022-08-25T07:52:18;12.77;;;3.85;;
61104;SDS011;46987;32.638;-115.438;2022-08-25T07:54:46;10.73;;;3.65;;
61104;SDS011;46987;32.638;-115.438;2022-08-25T07:57:13;12.32;;;3.90;;
61104;SDS011;46987;32.638;-115.438;2022-08-25T07:59:42;13.00;;;3.88;;
61104;SDS011;46987;32.638;-115.438;2022-08-25T08:02:10;11.95;;;4.35;;
61104;SDS011;46987;32.638;-115.438;2022-08-25T08:04:38;12.90;;;3.35;;
61104;SDS011;46987;32.638;-115.438;2022-08-25T08:07:12;15.05;;;4.13;;
61104;SDS011;46987;32.638;-115.438;2022-08-25T08:09:43;13.55;;;4.20;;
61104;SDS011;46987;32.638;-115.438;2022-08-25T08:12:11;14.88;;;4.82;;
61104;SDS011;46987;32.638;-115.438;2022-08-25T08:14:38;11.05;;;4.50;;
61104;SDS011;46987;32.638;-115.438;2022-08-25T08:17:08;19.95;;;5.18;;
61104;SDS011;46987;32.638;-115.438;2022-08-25T08:19:36;11.52;;;4.40;;
61104;SDS011;46987;32.638;-115.438;2022-08-25T08:22:04;11.70;;;4.65;;
61104;SDS011;46987;32.638;-115.438;2022-08-25T08:24:32;14.32;;;4.78;;
61104;SDS011;46987;32.638;-115.438;2022-08-25T08:27:04;15.32;;;6.00;;
61104;SDS011;46987;32.638;-115.438;2022-08-25T08:29:32;18.17;;;6.50;;
61104;SDS011;46987;32.638;-115.438;2022-08-25T08:32:00;17.90;;;6.32;;
61104;SDS011;46987;32.638;-115.438;2022-08-25T08:34:30;18.63;;;6.82;;
61104;SDS011;46987;32.638;-115.438;2022-08-25T08:36:58;18.90;;;7.15;;
61104;SDS011;46987;32.638;-115.438;2022-08-25T08:39:26;17.05;;;7.28;;
61104;SDS011;46987;32.638;-115.438;2022-08-25T08:41:57;24.45;;;7.40;;
61104;SDS011;46987;32.638;-115.438;2022-08-25T08:44:57;20.67;;;8.65;;
61104;SDS011;46987;32.638;-115.438;2022-08-25T08:47:36;23.92;;;8.73;;
61104;SDS011;46987;32.638;-115.438;2022-08-25T08:50:23;24.92;;;8.38;;
61104;SDS011;46987;32.638;-115.438;2022-08-25T08:52:59;16.08;;;6.82;;
61104;SDS011;46987;32.638;-115.438;2022-08-25T08:55:35;13.90;;;5.85;;
61104;SDS011;46987;32.638;-115.438;2022-08-25T08:58:05;12.38;;;4.85;;
61104;SDS011;46987;32.638;-115.438;2022-08-25T09:00:38;14.23;;;4.80;;
61104;SDS011;46987;32.638;-115.438;2022-08-25T09:03:11;13.65;;;5.00;;
61104;SDS011;46987;32.638;-115.438;2022-08-25T09:05:48;13.45;;;4.30;;
61104;SDS011;46987;32.638;-115.438;2022-08-25T09:08:20;14.50;;;3.67;;
61104;SDS011;46987;32.638;-115.438;2022-08-25T09:10:54;11.10;;;3.95;;
61104;SDS011;46987;32.638;-115.438;2022-08-25T09:13:32;10.02;;;3.72;;
61104;SDS011;46987;32.638;-115.438;2022-08-25T09:16:10;9.32;;;3.17;;
61104;SDS011;46987;32.638;-115.438;2022-08-25T09:19:04;8.30;;;2.85;;
61104;SDS011;46987;32.638;-115.438;2022-08-25T09:21:47;12.32;;;3.20;;
61104;SDS011;46987;32.638;-115.438;2022-08-25T09:24:25;8.48;;;2.72;;
61104;SDS011;46987;32.638;-115.438;2022-08-25T09:27:05;11.00;;;2.60;;
61104;SDS011;46987;32.638;-115.438;2022-08-25T09:29:44;7.68;;;2.30;;
61104;SDS011;46987;32.638;-115.438;2022-08-25T09:32:23;6.28;;;2.10;;
61104;SDS011;46987;32.638;-115.438;2022-08-25T09:34:52;9.77;;;2.22;;
61104;SDS011;46987;32.638;-115.438;2022-08-25T09:37:22;9.93;;;2.58;;
61104;SDS011;46987;32.638;-115.438;2022-08-25T09:39:50;11.00;;;1.90;;
61104;SDS011;46987;32.638;-115.438;2022-08-25T09:42:17;8.48;;;1.65;;
61104;SDS011;46987;32.638;-115.438;2022-08-25T09:44:45;8.02;;;1.88;;
61104;SDS011;46987;32.638;-115.438;2022-08-25T09:47:18;10.40;;;1.90;;
61104;SDS011;46987;32.638;-115.438;2022-08-25T09:49:49;10.48;;;1.80;;
61104;SDS011;46987;32.638;-115.438;2022-08-25T09:52:33;10.80;;;1.92;;
61104;SDS011;46987;32.638;-115.438;2022-08-25T09:57:57;13.52;;;1.80;;
61104;SDS011;46987;32.638;-115.438;2022-08-25T10:00:25;9.57;;;1.50;;
61104;SDS011;46987;32.638;-115.438;2022-08-25T10:03:02;11.43;;;1.63;;
61104;SDS011;46987;32.638;-115.438;2022-08-25T10:05:31;15.63;;;2.55;;
61104;SDS011;46987;32.638;-115.438;2022-08-25T10:08:04;22.65;;;2.55;;
61104;SDS011;46987;32.638;-115.438;2022-08-25T10:10:39;16.40;;;2.63;;
61104;SDS011;46987;32.638;-115.438;2022-08-25T10:13:16;12.90;;;1.88;;
61104;SDS011;46987;32.638;-115.438;2022-08-25T10:15:45;15.57;;;2.42;;
61104;SDS011;46987;32.638;-115.438;2022-08-25T10:18:19;13.73;;;2.22;;
61104;SDS011;46987;32.638;-115.438;2022-08-25T10:21:00;15.27;;;2.78;;
61104;SDS011;46987;32.638;-115.438;2022-08-25T10:23:34;11.95;;;2.08;;
61104;SDS011;46987;32.638;-115.438;2022-08-25T10:26:04;16.77;;;1.77;;
61104;SDS011;46987;32.638;-115.438;2022-08-25T10:28:38;14.10;;;2.00;;
61104;SDS011;46987;32.638;-115.438;2022-08-25T10:31:17;16.38;;;2.38;;
61104;SDS011;46987;32.638;-115.438;2022-08-25T10:33:53;14.27;;;2.95;;
61104;SDS011;46987;32.638;-115.438;2022-08-25T10:36:36;14.50;;;2.15;;
61104;SDS011;46987;32.638;-115.438;2022-08-25T10:39:17;11.98;;;1.73;;
61104;SDS011;46987;32.638;-115.438;2022-08-25T10:41:57;14.52;;;1.85;;
61104;SDS011;46987;32.638;-115.438;2022-08-25T10:44:34;11.05;;;1.75;;
61104;SDS011;46987;32.638;-115.438;2022-08-25T10:47:32;13.43;;;1.67;;
61104;SDS011;46987;32.638;-115.438;2022-08-25T10:50:11;10.02;;;1.65;;
61104;SDS011;46987;32.638;-115.438;2022-08-25T10:52:48;11.63;;;1.63;;
61104;SDS011;46987;32.638;-115.438;2022-08-25T10:55:29;10.38;;;1.88;;
61104;SDS011;46987;32.638;-115.438;2022-08-25T10:58:07;13.18;;;1.73;;
61104;SDS011;46987;32.638;-115.438;2022-08-25T11:00:45;14.02;;;1.88;;
61104;SDS011;46987;32.638;-115.438;2022-08-25T11:03:25;20.20;;;2.85;;
61104;SDS011;46987;32.638;-115.438;2022-08-25T11:06:03;12.13;;;2.20;;
61104;SDS011;46987;32.638;-115.438;2022-08-25T11:08:39;8.57;;;1.77;;
61104;SDS011;46987;32.638;-115.438;2022-08-25T11:11:12;6.93;;;1.83;;
61104;SDS011;46987;32.638;-115.438;2022-08-25T11:13:47;9.02;;;1.50;;
61104;SDS011;46987;32.638;-115.438;2022-08-25T11:16:20;10.93;;;1.55;;
61104;SDS011;46987;32.638;-115.438;2022-08-25T11:18:58;12.10;;;3.80;;
61104;SDS011;46987;32.638;-115.438;2022-08-25T11:21:32;15.27;;;4.07;;
61104;SDS011;46987;32.638;-115.438;2022-08-25T11:24:06;13.07;;;4.80;;
61104;SDS011;46987;32.638;-115.438;2022-08-25T11:26:56;14.90;;;4.80;;
61104;SDS011;46987;32.638;-115.438;2022-08-25T11:29:27;15.88;;;6.43;;
61104;SDS011;46987;32.638;-115.438;2022-08-25T11:31:58;16.50;;;6.72;;
61104;SDS011;46987;32.638;-115.438;2022-08-25T11:34:27;14.50;;;5.93;;
61104;SDS011;46987;32.638;-115.438;2022-08-25T11:36:59;13.02;;;4.75;;
61104;SDS011;46987;32.638;-115.438;2022-08-25T11:39:36;10.55;;;2.80;;
61104;SDS011;46987;32.638;-115.438;2022-08-25T11:42:24;10.15;;;2.42;;
61104;SDS011;46987;32.638;-115.438;2022-08-25T11:45:03;7.55;;;2.03;;
61104;SDS011;46987;32.638;-115.438;2022-08-25T11:47:44;9.65;;;2.30;;
61104;SDS011;46987;32.638;-115.438;2022-08-25T11:50:27;8.05;;;2.05;;
61104;SDS011;46987;32.638;-115.438;2022-08-25T11:52:59;9.45;;;2.78;;
61104;SDS011;46987;32.638;-115.438;2022-08-25T11:58:20;7.88;;;2.50;;
61104;SDS011;46987;32.638;-115.438;2022-08-25T12:01:04;9.10;;;2.33;;
61104;SDS011;46987;32.638;-115.438;2022-08-25T12:03:49;8.57;;;2.72;;
61104;SDS011;46987;32.638;-115.438;2022-08-25T12:06:25;9.70;;;2.45;;
61104;SDS011;46987;32.638;-115.438;2022-08-25T12:11:51;8.93;;;2.45;;
61104;SDS011;46987;32.638;-115.438;2022-08-25T12:17:20;4.82;;;1.40;;
61104;SDS011;46987;32.638;-115.438;2022-08-25T12:19:54;7.60;;;1.20;;
61104;SDS011;46987;32.638;-115.438;2022-08-25T12:28:20;4.72;;;1.42;;
61104;SDS011;46987;32.638;-115.438;2022-08-25T12:31:02;5.07;;;1.33;;
61104;SDS011;46987;32.638;-115.438;2022-08-25T12:33:37;7.40;;;1.40;;
61104;SDS011;46987;32.638;-115.438;2022-08-25T12:36:24;6.50;;;1.40;;
61104;SDS011;46987;32.638;-115.438;2022-08-25T12:38:53;7.97;;;1.65;;
61104;SDS011;46987;32.638;-115.438;2022-08-25T12:41:33;8.48;;;1.90;;
61104;SDS011;46987;32.638;-115.438;2022-08-25T12:44:08;7.57;;;1.88;;
61104;SDS011;46987;32.638;-115.438;2022-08-25T12:46:51;6.07;;;1.20;;
61104;SDS011;46987;32.638;-115.438;2022-08-25T12:49:32;7.05;;;1.75;;
61104;SDS011;46987;32.638;-115.438;2022-08-25T12:52:01;10.70;;;1.83;;
61104;SDS011;46987;32.638;-115.438;2022-08-25T12:54:41;10.98;;;2.65;;
61104;SDS011;46987;32.638;-115.438;2022-08-25T12:57:21;6.88;;;1.38;;
61104;SDS011;46987;32.638;-115.438;2022-08-25T12:59:55;6.10;;;1.48;;
61104;SDS011;46987;32.638;-115.438;2022-08-25T13:02:34;6.05;;;1.20;;
61104;SDS011;46987;32.638;-115.438;2022-08-25T13:05:35;5.88;;;1.60;;
61104;SDS011;46987;32.638;-115.438;2022-08-25T13:08:25;9.52;;;1.48;;
61104;SDS011;46987;32.638;-115.438;2022-08-25T13:11:08;3.30;;;1.15;;
61104;SDS011;46987;32.638;-115.438;2022-08-25T13:13:44;7.07;;;1.50;;
61104;SDS011;46987;32.638;-115.438;2022-08-25T13:16:17;5.93;;;1.42;;
61104;SDS011;46987;32.638;-115.438;2022-08-25T13:18:48;4.75;;;1.27;;
61104;SDS011;46987;32.638;-115.438;2022-08-25T13:21:16;5.50;;;1.42;;
61104;SDS011;46987;32.638;-115.438;2022-08-25T13:23:47;8.07;;;1.50;;
61104;SDS011;46987;32.638;-115.438;2022-08-25T13:26:20;7.57;;;1.55;;
61104;SDS011;46987;32.638;-115.438;2022-08-25T13:28:50;4.80;;;1.30;;
61104;SDS011;46987;32.638;-115.438;2022-08-25T13:31:20;6.70;;;1.40;;
61104;SDS011;46987;32.638;-115.438;2022-08-25T13:33:53;6.82;;;1.58;;
61104;SDS011;46987;32.638;-115.438;2022-08-25T13:36:22;10.23;;;2.00;;
61104;SDS011;46987;32.638;-115.438;2022-08-25T13:39:10;11.57;;;2.25;;
61104;SDS011;46987;32.638;-115.438;2022-08-25T13:41:43;10.63;;;1.98;;
61104;SDS011;46987;32.638;-115.438;2022-08-25T13:44:12;8.73;;;1.93;;
61104;SDS011;46987;32.638;-115.438;2022-08-25T13:46:40;6.70;;;1.60;;
61104;SDS011;46987;32.638;-115.438;2022-08-25T13:49:09;12.35;;;2.00;;
61104;SDS011;46987;32.638;-115.438;2022-08-25T13:51:37;12.63;;;2.35;;
61104;SDS011;46987;32.638;-115.438;2022-08-25T13:54:21;15.98;;;2.70;;
61104;SDS011;46987;32.638;-115.438;2022-08-25T13:56:51;14.75;;;2.47;;
61104;SDS011;46987;32.638;-115.438;2022-08-25T13:59:20;10.55;;;2.60;;
61104;SDS011;46987;32.638;-115.438;2022-08-25T14:01:51;12.10;;;2.03;;
61104;SDS011;46987;32.638;-115.438;2022-08-25T14:04:25;12.57;;;3.10;;
61104;SDS011;46987;32.638;-115.438;2022-08-25T14:07:12;11.70;;;2.53;;
61104;SDS011;46987;32.638;-115.438;2022-08-25T14:09:53;13.98;;;2.33;;
61104;SDS011;46987;32.638;-115.438;2022-08-25T14:12:27;13.98;;;2.58;;
61104;SDS011;46987;32.638;-115.438;2022-08-25T14:15:04;12.38;;;2.78;;
61104;SDS011;46987;32.638;-115.438;2022-08-25T14:17:34;10.77;;;2.42;;
61104;SDS011;46987;32.638;-115.438;2022-08-25T14:20:06;14.45;;;3.15;;
61104;SDS011;46987;32.638;-115.438;2022-08-25T14:22:50;12.25;;;2.72;;
61104;SDS011;46987;32.638;-115.438;2022-08-25T14:25:21;11.38;;;2.47;;
61104;SDS011;46987;32.638;-115.438;2022-08-25T14:27:53;13.32;;;2.10;;
61104;SDS011;46987;32.638;-115.438;2022-08-25T14:30:22;8.38;;;2.20;;
61104;SDS011;46987;32.638;-115.438;2022-08-25T14:32:49;8.43;;;2.53;;
61104;SDS011;46987;32.638;-115.438;2022-08-25T14:35:19;7.10;;;2.08;;
61104;SDS011;46987;32.638;-115.438;2022-08-25T14:37:46;13.05;;;2.67;;
61104;SDS011;46987;32.638;-115.438;2022-08-25T14:40:14;13.50;;;2.83;;
61104;SDS011;46987;32.638;-115.438;2022-08-25T14:42:44;8.02;;;2.90;;
61104;SDS011;46987;32.638;-115.438;2022-08-25T14:45:13;12.73;;;2.65;;
61104;SDS011;46987;32.638;-115.438;2022-08-25T14:47:41;7.93;;;2.05;;